Terminal Aerodrome Forecast
Issued by NWS

Home | Current Version | Previous Version | Text Only | Print | Product List | Glossary On
Versions: 1 2 3 4 5 6 7 8 9 10 11 12 13 14 15 16 17 18 19 20 21 22 23 24 25 26 27 28 29 30 31
000
FTUS43 KDMX 170532
TAFFOD
TAF
KFOD 170532Z 1706/1806 VRB04KT 4SM BR OVC004
     FM171400 30006KT 5SM BR OVC006
     FM171900 28008KT 5SM HZ BKN015
     FM172200 VRB05KT P6SM SKC=

USA.gov is the U.S. government's official web portal to all federal, state and local government web resources and services.